Time;durP1;ratioP1;P1;durP2;ratioP2;P2;SDS_P1;SDS_P2;PMS_P1;PMS_P2;Temp;Humidity;BMP_temperature;BMP_pressure;BME280_temperature;BME280_humidity;BME280_pressure;Samples;Min_cycle;Max_cycle;Signal;HPM_P1;HPM_P2
2022/12/03 00:00:27;;;;;;;34.30;12.35;;;;;;;;;;5026890;28;20057;-80
2022/12/03 00:02:53;;;;;;;24.15;9.70;;;;;;;;;;5027240;28;20083;-79
2022/12/03 00:05:18;;;;;;;31.88;10.93;;;;;;;;;;5026795;28;20091;-80
2022/12/03 00:07:43;;;;;;;22.95;10.18;;;;;;;;;;5024069;28;20061;-79
2022/12/03 00:10:09;;;;;;;23.63;10.35;;;;;;;;;;5026258;28;20112;-79
2022/12/03 00:12:34;;;;;;;27.40;10.60;;;;;;;;;;5025705;28;20040;-79
2022/12/03 00:15:00;;;;;;;31.63;12.20;;;;;;;;;;5025617;28;20087;-79
2022/12/03 00:17:25;;;;;;;26.02;10.75;;;;;;;;;;5016784;28;20137;-80
2022/12/03 00:19:50;;;;;;;29.40;10.48;;;;;;;;;;5027194;28;20038;-79
2022/12/03 00:22:16;;;;;;;31.05;10.35;;;;;;;;;;5026549;28;20096;-77
2022/12/03 00:24:41;;;;;;;31.50;12.02;;;;;;;;;;5023832;28;20037;-76
2022/12/03 00:27:06;;;;;;;25.13;8.85;;;;;;;;;;5025994;28;20038;-79
2022/12/03 00:29:32;;;;;;;29.20;11.23;;;;;;;;;;5027071;28;20558;-79
2022/12/03 00:31:57;;;;;;;34.63;11.30;;;;;;;;;;5025956;28;20036;-80
2022/12/03 00:34:22;;;;;;;32.08;11.05;;;;;;;;;;5026771;28;20040;-79
2022/12/03 00:36:48;;;;;;;31.77;10.73;;;;;;;;;;5020185;28;20030;-79
2022/12/03 00:39:13;;;;;;;29.08;10.00;;;;;;;;;;5021442;28;20693;-80
2022/12/03 00:41:38;;;;;;;33.88;11.00;;;;;;;;;;5021183;28;20033;-79
2022/12/03 00:44:04;;;;;;;24.38;9.15;;;;;;;;;;5040626;28;20113;-80
2022/12/03 00:46:29;;;;;;;27.05;9.95;;;;;;;;;;5024717;28;20021;-79
2022/12/03 00:48:55;;;;;;;23.73;10.10;;;;;;;;;;5025771;28;20056;-79
2022/12/03 00:51:20;;;;;;;20.00;10.00;;;;;;;;;;5016998;28;20037;-79
2022/12/03 00:53:45;;;;;;;34.90;12.13;;;;;;;;;;5024118;28;20076;-80
2022/12/03 00:56:11;;;;;;;28.40;10.02;;;;;;;;;;5025644;28;20049;-79
2022/12/03 00:58:36;;;;;;;24.35;8.82;;;;;;;;;;5025063;28;20079;-80
2022/12/03 01:01:01;;;;;;;24.73;9.75;;;;;;;;;;5025112;28;20029;-79
2022/12/03 01:03:28;;;;;;;28.17;10.27;;;;;;;;;;5027051;28;20469;-80
2022/12/03 01:05:53;;;;;;;30.17;10.77;;;;;;;;;;5023947;28;20038;-79
2022/12/03 01:08:18;;;;;;;29.20;9.38;;;;;;;;;;5025968;28;20082;-79
2022/12/03 01:10:43;;;;;;;22.73;9.00;;;;;;;;;;5025666;28;20036;-80
2022/12/03 01:13:09;;;;;;;20.40;7.80;;;;;;;;;;5025107;28;20063;-79
2022/12/03 01:15:34;;;;;;;28.75;10.82;;;;;;;;;;5023936;28;20041;-79
2022/12/03 01:18:00;;;;;;;24.85;10.38;;;;;;;;;;5019695;28;20117;-79
2022/12/03 01:20:26;;;;;;;23.45;10.00;;;;;;;;;;5015513;28;20747;-80
2022/12/03 01:22:51;;;;;;;26.20;10.35;;;;;;;;;;5025423;28;20037;-79
2022/12/03 01:25:16;;;;;;;25.50;9.63;;;;;;;;;;5026629;28;20522;-80
2022/12/03 01:27:42;;;;;;;24.45;9.27;;;;;;;;;;5026563;28;20145;-79
2022/12/03 01:30:09;;;;;;;23.73;9.38;;;;;;;;;;5019047;28;20048;-79
2022/12/03 01:32:34;;;;;;;24.58;9.02;;;;;;;;;;5021548;28;20034;-80
2022/12/03 01:35:00;;;;;;;28.10;10.23;;;;;;;;;;5025196;28;20040;-80
2022/12/03 01:37:26;;;;;;;27.98;10.85;;;;;;;;;;5021319;28;20264;-79
2022/12/03 01:39:51;;;;;;;15.48;7.28;;;;;;;;;;5020649;28;20048;-79
2022/12/03 01:42:21;;;;;;;25.20;9.77;;;;;;;;;;5021563;28;20080;-80
2022/12/03 01:44:47;;;;;;;27.10;9.77;;;;;;;;;;5026099;28;20076;-80
2022/12/03 01:47:16;;;;;;;35.03;11.88;;;;;;;;;;5022380;28;20041;-79
2022/12/03 01:49:46;;;;;;;24.05;9.57;;;;;;;;;;5038957;28;20049;-79
2022/12/03 01:52:15;;;;;;;22.00;9.85;;;;;;;;;;5030594;28;20040;-79
2022/12/03 01:54:45;;;;;;;22.50;10.40;;;;;;;;;;5024477;28;20515;-79
2022/12/03 01:57:22;;;;;;;20.30;8.80;;;;;;;;;;5020851;28;20506;-79
2022/12/03 01:59:48;;;;;;;19.88;9.18;;;;;;;;;;5025435;28;20041;-79
2022/12/03 02:02:20;;;;;;;28.10;10.32;;;;;;;;;;5027897;28;20418;-79
2022/12/03 02:04:46;;;;;;;17.70;7.97;;;;;;;;;;5025649;28;20118;-80
2022/12/03 02:07:19;;;;;;;22.77;8.73;;;;;;;;;;5025648;28;20491;-79
2022/12/03 02:09:45;;;;;;;19.38;8.38;;;;;;;;;;5016008;28;20050;-80
2022/12/03 02:12:11;;;;;;;21.67;9.25;;;;;;;;;;5020042;28;20040;-79
2022/12/03 02:14:37;;;;;;;24.17;9.43;;;;;;;;;;5026651;28;20569;-79
2022/12/03 02:17:02;;;;;;;17.23;6.97;;;;;;;;;;5026791;28;20038;-79
2022/12/03 02:19:28;;;;;;;19.63;8.15;;;;;;;;;;5026614;28;20429;-79
2022/12/03 02:22:18;;;;;;;25.90;8.77;;;;;;;;;;5026571;28;20028;-80
2022/12/03 02:25:13;;;;;;;13.68;6.60;;;;;;;;;;5024830;28;20040;-80
2022/12/03 02:27:38;;;;;;;21.65;8.50;;;;;;;;;;5010659;28;20428;-79
2022/12/03 02:30:06;;;;;;;17.27;8.07;;;;;;;;;;5017077;28;20115;-79
2022/12/03 02:32:31;;;;;;;23.52;9.35;;;;;;;;;;5010995;28;20040;-79
2022/12/03 02:34:56;;;;;;;22.77;8.43;;;;;;;;;;5024287;28;20033;-79
2022/12/03 02:37:28;;;;;;;19.67;7.40;;;;;;;;;;5026258;28;20021;-80
2022/12/03 02:39:55;;;;;;;21.50;9.23;;;;;;;;;;5022086;28;20028;-79
2022/12/03 02:42:33;;;;;;;26.88;9.52;;;;;;;;;;5018672;28;20157;-79
2022/12/03 02:45:05;;;;;;;20.17;7.80;;;;;;;;;;5020331;28;20156;-79
2022/12/03 02:47:37;;;;;;;22.02;9.63;;;;;;;;;;5017237;28;20128;-79
2022/12/03 02:50:03;;;;;;;25.88;10.15;;;;;;;;;;5023546;28;20084;-79
2022/12/03 02:52:29;;;;;;;20.95;8.85;;;;;;;;;;5020740;28;20025;-79
2022/12/03 02:54:54;;;;;;;26.60;9.40;;;;;;;;;;5021016;28;20048;-78
2022/12/03 02:57:20;;;;;;;19.83;8.38;;;;;;;;;;5024090;28;20038;-79
2022/12/03 02:59:45;;;;;;;16.20;6.97;;;;;;;;;;5023228;28;20042;-79
2022/12/03 03:02:14;;;;;;;19.08;7.22;;;;;;;;;;5023940;28;20030;-79
2022/12/03 03:04:40;;;;;;;18.92;8.05;;;;;;;;;;5023602;28;20075;-79
2022/12/03 03:07:06;;;;;;;21.92;8.32;;;;;;;;;;5022182;28;20056;-79
2022/12/03 03:09:32;;;;;;;10.32;4.88;;;;;;;;;;5026547;28;20064;-77
2022/12/03 03:11:57;;;;;;;23.55;8.30;;;;;;;;;;5025004;28;20036;-79
2022/12/03 03:14:23;;;;;;;17.45;7.07;;;;;;;;;;5024809;28;20033;-79
2022/12/03 03:16:54;;;;;;;19.88;7.43;;;;;;;;;;5008429;28;21210;-79
2022/12/03 03:19:22;;;;;;;23.50;9.30;;;;;;;;;;5026698;28;20060;-79
2022/12/03 03:21:48;;;;;;;19.33;7.72;;;;;;;;;;5024950;28;20129;-80
2022/12/03 03:24:13;;;;;;;19.73;7.55;;;;;;;;;;5026335;28;20455;-80
2022/12/03 03:26:39;;;;;;;26.77;9.90;;;;;;;;;;5024588;28;20034;-79
2022/12/03 03:29:04;;;;;;;21.13;8.35;;;;;;;;;;5026071;28;20033;-79
2022/12/03 03:31:29;;;;;;;25.85;9.30;;;;;;;;;;5022689;28;20028;-79
2022/12/03 03:33:55;;;;;;;16.65;7.90;;;;;;;;;;5026378;28;20159;-79
2022/12/03 03:36:21;;;;;;;21.52;8.55;;;;;;;;;;5024111;28;20018;-79
2022/12/03 03:38:47;;;;;;;19.42;7.43;;;;;;;;;;5024340;28;20037;-79
2022/12/03 03:41:13;;;;;;;13.15;6.28;;;;;;;;;;5007206;28;20048;-79
2022/12/03 03:43:41;;;;;;;20.77;8.75;;;;;;;;;;5026118;28;20036;-79
2022/12/03 03:46:06;;;;;;;20.50;8.45;;;;;;;;;;5026040;28;20060;-79
2022/12/03 03:48:33;;;;;;;19.42;7.82;;;;;;;;;;5022972;28;20057;-79
2022/12/03 03:50:59;;;;;;;22.38;7.22;;;;;;;;;;5022507;28;20049;-79
2022/12/03 03:53:25;;;;;;;19.95;7.85;;;;;;;;;;5025712;28;20064;-80
2022/12/03 03:55:51;;;;;;;21.95;7.97;;;;;;;;;;5025285;28;20030;-79
2022/12/03 03:58:16;;;;;;;23.30;8.52;;;;;;;;;;5026371;28;20096;-80
2022/12/03 04:00:44;;;;;;;18.58;7.95;;;;;;;;;;5020703;28;20560;-79
2022/12/03 04:03:10;;;;;;;19.52;7.38;;;;;;;;;;5024285;28;20049;-80
2022/12/03 04:05:35;;;;;;;20.77;8.43;;;;;;;;;;5015189;28;20040;-78
2022/12/03 04:08:00;;;;;;;21.45;8.43;;;;;;;;;;5022633;28;20156;-79
2022/12/03 04:13:10;;;;;;;19.00;7.43;;;;;;;;;;5025865;28;20071;-80
2022/12/03 04:15:35;;;;;;;21.85;8.77;;;;;;;;;;5020939;28;20029;-77
2022/12/03 04:18:43;;;;;;;14.75;6.05;;;;;;;;;;5021901;28;20049;-80
2022/12/03 04:20:49;;;;;;;17.33;7.72;;;;;;;;;;5024624;28;20518;-79
2022/12/03 04:23:14;;;;;;;23.25;8.00;;;;;;;;;;5019326;28;20912;-79
2022/12/03 04:36:37;;;;;;;20.50;8.25;;;;;;;;;;5028944;28;20096;-79
2022/12/03 04:39:03;;;;;;;22.38;8.15;;;;;;;;;;5027884;28;20045;-79
2022/12/03 04:41:29;;;;;;;19.48;6.47;;;;;;;;;;5020773;28;20503;-79
2022/12/03 04:44:54;;;;;;;19.27;8.77;;;;;;;;;;5051167;28;20057;-79
2022/12/03 04:46:48;;;;;;;12.60;6.18;;;;;;;;;;5027638;28;20546;-79
2022/12/03 04:49:14;;;;;;;18.85;6.97;;;;;;;;;;5027260;28;20045;-79
2022/12/03 04:51:39;;;;;;;19.88;8.38;;;;;;;;;;5028426;28;20032;-79
2022/12/03 04:54:04;;;;;;;21.00;6.72;;;;;;;;;;5027503;28;20524;-79
2022/12/03 04:56:30;;;;;;;18.23;6.80;;;;;;;;;;5026852;28;20029;-79
2022/12/03 04:58:55;;;;;;;11.77;5.93;;;;;;;;;;5026270;28;20037;-78
2022/12/03 05:01:20;;;;;;;14.82;5.88;;;;;;;;;;5028353;28;20028;-79
2022/12/03 05:03:46;;;;;;;17.58;7.10;;;;;;;;;;5024588;28;20028;-79
2022/12/03 05:06:11;;;;;;;17.63;7.10;;;;;;;;;;5027689;28;20506;-78
2022/12/03 05:08:36;;;;;;;20.02;8.55;;;;;;;;;;5028171;28;20049;-79
2022/12/03 05:11:01;;;;;;;18.60;7.72;;;;;;;;;;5028750;28;20041;-79
2022/12/03 05:13:27;;;;;;;20.00;8.30;;;;;;;;;;5026829;28;20075;-79
2022/12/03 05:15:52;;;;;;;21.08;7.95;;;;;;;;;;5027541;28;20100;-79
2022/12/03 05:18:17;;;;;;;20.38;8.73;;;;;;;;;;5028507;28;20034;-80
2022/12/03 05:20:43;;;;;;;21.80;8.95;;;;;;;;;;5027356;28;20034;-79
2022/12/03 05:23:09;;;;;;;17.17;7.28;;;;;;;;;;5026307;28;20044;-79
2022/12/03 05:25:35;;;;;;;18.77;7.32;;;;;;;;;;5027299;28;20030;-79
2022/12/03 05:28:00;;;;;;;19.55;7.30;;;;;;;;;;5027744;28;20029;-79
2022/12/03 05:30:25;;;;;;;17.23;7.32;;;;;;;;;;5026247;28;20044;-79
2022/12/03 05:32:51;;;;;;;17.80;6.43;;;;;;;;;;5025324;28;20451;-79
2022/12/03 05:35:16;;;;;;;21.38;8.52;;;;;;;;;;5028020;28;20033;-79
2022/12/03 05:37:42;;;;;;;20.15;8.77;;;;;;;;;;5027567;28;20046;-80
2022/12/03 05:40:08;;;;;;;13.75;6.32;;;;;;;;;;5026639;28;20513;-79
2022/12/03 05:45:26;;;;;;;17.58;7.28;;;;;;;;;;5018914;28;20140;-79
2022/12/03 05:47:53;;;;;;;16.65;7.32;;;;;;;;;;5021346;28;20049;-80
2022/12/03 05:50:20;;;;;;;26.95;9.95;;;;;;;;;;5026442;28;20037;-79
2022/12/03 05:52:46;;;;;;;17.60;6.38;;;;;;;;;;5026110;28;20029;-79
2022/12/03 05:55:11;;;;;;;19.27;7.15;;;;;;;;;;5027234;28;20100;-79
2022/12/03 05:57:37;;;;;;;15.70;7.35;;;;;;;;;;5026293;28;20045;-79
2022/12/03 06:00:05;;;;;;;18.10;7.38;;;;;;;;;;5026934;28;20423;-79
2022/12/03 06:02:30;;;;;;;22.45;7.88;;;;;;;;;;5019634;28;20037;-79
2022/12/03 06:04:56;;;;;;;20.67;7.82;;;;;;;;;;5015277;28;20041;-79
2022/12/03 06:07:21;;;;;;;8.57;4.40;;;;;;;;;;5018476;28;20391;-79
2022/12/03 06:09:46;;;;;;;21.80;8.07;;;;;;;;;;5025559;28;20029;-79
2022/12/03 06:12:12;;;;;;;15.07;6.47;;;;;;;;;;5023226;28;20041;-79
2022/12/03 06:14:37;;;;;;;16.98;6.85;;;;;;;;;;5024913;28;20022;-79
2022/12/03 06:17:03;;;;;;;20.13;8.00;;;;;;;;;;5025172;28;20030;-77
2022/12/03 06:19:29;;;;;;;17.83;6.45;;;;;;;;;;5017375;28;20013;-79
2022/12/03 06:21:54;;;;;;;15.68;7.45;;;;;;;;;;5016336;28;20052;-79
2022/12/03 06:24:20;;;;;;;18.65;8.27;;;;;;;;;;5023691;28;20220;-78
2022/12/03 06:26:45;;;;;;;18.88;7.60;;;;;;;;;;5025649;28;20045;-81
2022/12/03 06:29:10;;;;;;;14.23;6.10;;;;;;;;;;5019973;28;20029;-79
2022/12/03 06:31:35;;;;;;;16.73;7.20;;;;;;;;;;5021352;28;20100;-79
2022/12/03 06:34:01;;;;;;;17.48;7.18;;;;;;;;;;5025250;28;20021;-79
2022/12/03 06:36:26;;;;;;;12.65;7.07;;;;;;;;;;5026490;28;20033;-79
2022/12/03 06:38:52;;;;;;;16.42;7.65;;;;;;;;;;5025705;28;20481;-79
2022/12/03 06:41:18;;;;;;;16.10;7.00;;;;;;;;;;5022556;28;20038;-79
2022/12/03 06:43:43;;;;;;;17.05;7.22;;;;;;;;;;5014094;28;20039;-80
2022/12/03 06:46:09;;;;;;;20.48;8.27;;;;;;;;;;5026417;28;20026;-78
2022/12/03 06:48:34;;;;;;;18.05;7.10;;;;;;;;;;5024752;28;20050;-79
2022/12/03 06:50:59;;;;;;;13.35;6.18;;;;;;;;;;5023461;28;20025;-79
2022/12/03 06:53:24;;;;;;;16.30;6.90;;;;;;;;;;5024342;28;20041;-79
2022/12/03 06:55:50;;;;;;;14.50;5.97;;;;;;;;;;5025627;28;20034;-79
2022/12/03 06:58:15;;;;;;;12.63;6.38;;;;;;;;;;5026896;28;20021;-80
2022/12/03 07:00:40;;;;;;;15.75;7.80;;;;;;;;;;5025609;28;20048;-80
2022/12/03 07:03:06;;;;;;;16.33;7.38;;;;;;;;;;5025158;28;20626;-79
2022/12/03 07:05:31;;;;;;;16.55;7.68;;;;;;;;;;5025601;28;20084;-79
2022/12/03 07:07:56;;;;;;;24.30;8.88;;;;;;;;;;5021251;28;20048;-79
2022/12/03 07:10:22;;;;;;;20.83;7.60;;;;;;;;;;5021157;28;20112;-79
2022/12/03 07:12:47;;;;;;;18.25;7.75;;;;;;;;;;5025274;28;20394;-79
2022/12/03 07:15:12;;;;;;;21.00;7.97;;;;;;;;;;5026143;28;20034;-79
2022/12/03 07:17:38;;;;;;;19.38;8.35;;;;;;;;;;5026001;28;20511;-79
2022/12/03 07:20:03;;;;;;;21.05;8.82;;;;;;;;;;5024491;28;20513;-80
2022/12/03 07:22:29;;;;;;;17.83;7.25;;;;;;;;;;5024518;28;20017;-80
2022/12/03 07:24:54;;;;;;;13.65;6.97;;;;;;;;;;5025916;28;20025;-79
2022/12/03 07:27:20;;;;;;;17.52;7.68;;;;;;;;;;5024783;28;20033;-80
2022/12/03 07:29:45;;;;;;;18.60;7.68;;;;;;;;;;5025113;28;20030;-80
2022/12/03 07:32:10;;;;;;;17.35;7.38;;;;;;;;;;5025755;28;20469;-80
2022/12/03 07:34:36;;;;;;;20.77;8.52;;;;;;;;;;5023956;28;20024;-79
2022/12/03 07:37:01;;;;;;;15.60;6.90;;;;;;;;;;5026197;28;20018;-80
2022/12/03 07:39:26;;;;;;;19.00;6.55;;;;;;;;;;5025514;28;20049;-80
2022/12/03 07:41:52;;;;;;;11.73;5.68;;;;;;;;;;5025355;28;20041;-79
2022/12/03 07:44:17;;;;;;;18.60;7.43;;;;;;;;;;5024705;28;20038;-80
2022/12/03 07:46:42;;;;;;;12.68;5.53;;;;;;;;;;5025645;28;20033;-80
2022/12/03 07:49:08;;;;;;;17.52;7.05;;;;;;;;;;5025076;28;20586;-80
2022/12/03 07:51:33;;;;;;;16.90;6.75;;;;;;;;;;5023958;28;20029;-80
2022/12/03 07:53:58;;;;;;;18.42;7.63;;;;;;;;;;5023260;28;20471;-79
2022/12/03 07:56:24;;;;;;;11.02;5.50;;;;;;;;;;5016053;28;20084;-80
2022/12/03 07:58:49;;;;;;;14.98;5.95;;;;;;;;;;5024893;28;20087;-80
2022/12/03 08:01:14;;;;;;;18.30;7.47;;;;;;;;;;5023557;28;20021;-79
2022/12/03 08:03:41;;;;;;;16.65;6.35;;;;;;;;;;5025496;28;20033;-80
2022/12/03 08:06:07;;;;;;;17.40;6.57;;;;;;;;;;5023850;28;21066;-76
2022/12/03 08:08:32;;;;;;;15.93;7.07;;;;;;;;;;5022147;28;20044;-80
2022/12/03 08:10:59;;;;;;;13.70;6.07;;;;;;;;;;5038606;28;20040;-79
2022/12/03 08:13:26;;;;;;;20.52;7.03;;;;;;;;;;5027413;28;20047;-80
2022/12/03 08:15:51;;;;;;;15.25;6.03;;;;;;;;;;5029979;28;20009;-79
2022/12/03 08:18:19;;;;;;;17.50;7.15;;;;;;;;;;5028451;28;20103;-79
2022/12/03 08:20:47;;;;;;;17.30;7.05;;;;;;;;;;5028653;28;20037;-80
2022/12/03 08:23:24;;;;;;;14.15;6.35;;;;;;;;;;5027555;28;20026;-79
2022/12/03 08:25:51;;;;;;;16.88;6.85;;;;;;;;;;5021852;28;20044;-77
2022/12/03 08:28:25;;;;;;;20.65;7.20;;;;;;;;;;5023475;28;20038;-80
2022/12/03 08:30:59;;;;;;;18.13;8.57;;;;;;;;;;5020608;28;20396;-83
2022/12/03 08:33:28;;;;;;;18.25;7.38;;;;;;;;;;5021657;28;20080;-78
2022/12/03 08:35:53;;;;;;;22.73;8.57;;;;;;;;;;5025658;28;20092;-79
2022/12/03 08:38:22;;;;;;;16.67;6.82;;;;;;;;;;5025272;28;20527;-79
2022/12/03 08:40:50;;;;;;;14.88;5.97;;;;;;;;;;5017384;28;20148;-80
2022/12/03 08:43:18;;;;;;;22.77;8.52;;;;;;;;;;5020381;28;20469;-81
2022/12/03 08:45:43;;;;;;;19.77;8.05;;;;;;;;;;5017867;28;20048;-80
2022/12/03 08:48:12;;;;;;;25.30;8.48;;;;;;;;;;5023028;28;20054;-80
2022/12/03 08:50:39;;;;;;;15.48;7.28;;;;;;;;;;5010940;28;20616;-78
2022/12/03 08:53:31;;;;;;;19.23;7.18;;;;;;;;;;5023402;28;20661;-81
2022/12/03 08:56:12;;;;;;;16.45;6.38;;;;;;;;;;5021432;28;20068;-80
2022/12/03 08:58:38;;;;;;;22.27;7.70;;;;;;;;;;5026806;28;20029;-81
2022/12/03 09:01:07;;;;;;;19.02;7.53;;;;;;;;;;5043556;28;20466;-82
2022/12/03 09:03:33;;;;;;;15.10;6.07;;;;;;;;;;5019106;28;20077;-81
2022/12/03 09:05:58;;;;;;;19.38;6.63;;;;;;;;;;5015384;28;20095;-79
2022/12/03 09:08:23;;;;;;;20.67;7.35;;;;;;;;;;5019955;28;20042;-81
2022/12/03 09:10:49;;;;;;;21.55;8.02;;;;;;;;;;5025133;28;20045;-80
2022/12/03 09:13:14;;;;;;;22.83;9.13;;;;;;;;;;5022679;28;20131;-77
2022/12/03 09:15:39;;;;;;;19.10;7.90;;;;;;;;;;5019529;28;20483;-80
2022/12/03 09:18:05;;;;;;;17.10;6.90;;;;;;;;;;5019241;28;20041;-80
2022/12/03 09:20:30;;;;;;;21.42;8.07;;;;;;;;;;5024740;28;20065;-80
2022/12/03 09:22:55;;;;;;;16.00;6.82;;;;;;;;;;5018455;28;20041;-80
2022/12/03 09:25:21;;;;;;;15.38;6.45;;;;;;;;;;5019526;28;20060;-79
2022/12/03 09:27:46;;;;;;;17.15;6.57;;;;;;;;;;5016961;28;20026;-80
2022/12/03 09:30:11;;;;;;;15.98;7.00;;;;;;;;;;5016595;28;20407;-79
2022/12/03 09:32:37;;;;;;;15.80;6.43;;;;;;;;;;5014411;28;20046;-80
2022/12/03 09:35:03;;;;;;;17.33;6.97;;;;;;;;;;5023927;28;20033;-80
2022/12/03 09:37:28;;;;;;;17.67;7.03;;;;;;;;;;5023693;28;20075;-80
2022/12/03 09:39:53;;;;;;;15.75;6.53;;;;;;;;;;5024976;28;20021;-80
2022/12/03 09:42:19;;;;;;;18.23;7.57;;;;;;;;;;5019773;28;20068;-80
2022/12/03 09:44:44;;;;;;;18.10;8.15;;;;;;;;;;5016029;28;20121;-80
2022/12/03 09:47:10;;;;;;;16.60;7.45;;;;;;;;;;5020436;28;20045;-80
2022/12/03 09:49:37;;;;;;;18.48;7.80;;;;;;;;;;5016672;28;20473;-79
2022/12/03 09:52:04;;;;;;;23.35;9.45;;;;;;;;;;5023008;28;20112;-80
2022/12/03 09:54:31;;;;;;;18.90;8.05;;;;;;;;;;5022402;28;20037;-79
2022/12/03 09:56:59;;;;;;;25.75;10.75;;;;;;;;;;5009983;28;20033;-80
2022/12/03 09:59:29;;;;;;;30.38;10.05;;;;;;;;;;5010285;28;20045;-79
2022/12/03 10:01:55;;;;;;;28.38;11.57;;;;;;;;;;5018491;28;20103;-80
2022/12/03 10:04:20;;;;;;;24.52;9.15;;;;;;;;;;5015425;28;20029;-78
2022/12/03 10:06:46;;;;;;;25.33;10.32;;;;;;;;;;5023523;28;20022;-82
2022/12/03 10:09:13;;;;;;;21.30;8.73;;;;;;;;;;5020467;28;20044;-80
2022/12/03 10:11:39;;;;;;;27.25;9.73;;;;;;;;;;5022049;28;20026;-80
2022/12/03 10:14:05;;;;;;;19.90;8.55;;;;;;;;;;5025492;28;20056;-81
2022/12/03 10:16:30;;;;;;;22.08;9.10;;;;;;;;;;5025331;28;20023;-80
2022/12/03 10:18:58;;;;;;;21.77;10.00;;;;;;;;;;5027839;28;20049;-81
2022/12/03 10:21:35;;;;;;;27.27;9.15;;;;;;;;;;5024925;28;20029;-80
2022/12/03 10:24:15;;;;;;;23.25;8.68;;;;;;;;;;5021680;28;21017;-81
2022/12/03 10:26:42;;;;;;;18.65;7.28;;;;;;;;;;5015407;28;20053;-78
2022/12/03 10:29:21;;;;;;;20.88;9.35;;;;;;;;;;5018765;28;20102;-82
2022/12/03 10:32:04;;;;;;;28.50;10.30;;;;;;;;;;5013328;28;20503;-81
2022/12/03 10:34:38;;;;;;;19.63;9.25;;;;;;;;;;5014712;28;20037;-77
2022/12/03 10:37:14;;;;;;;22.60;9.23;;;;;;;;;;5018268;28;20025;-77
2022/12/03 10:40:01;;;;;;;27.92;9.15;;;;;;;;;;5024297;28;20053;-77
2022/12/03 10:42:37;;;;;;;23.92;8.52;;;;;;;;;;5024805;28;20552;-77
2022/12/03 10:45:18;;;;;;;21.55;9.75;;;;;;;;;;5020105;28;20589;-77
2022/12/03 10:48:02;;;;;;;26.85;10.52;;;;;;;;;;5024337;28;20029;-77
2022/12/03 10:50:27;;;;;;;;;;;;;;;;;;5025228;28;20053;-77
2022/12/03 10:52:52;;;;;;;20.90;9.00;;;;;;;;;;5023825;28;19984;-77
2022/12/03 10:55:18;;;;;;;23.40;9.60;;;;;;;;;;5020776;28;20090;-77
2022/12/03 10:57:44;;;;;;;30.92;11.20;;;;;;;;;;5023887;28;20037;-77
2022/12/03 11:00:17;;;;;;;23.60;9.35;;;;;;;;;;5012494;28;20068;-76
2022/12/03 11:02:43;;;;;;;24.05;9.48;;;;;;;;;;5023589;28;20034;-77
2022/12/03 11:05:16;;;;;;;22.70;8.68;;;;;;;;;;5022123;28;20095;-77
2022/12/03 11:07:42;;;;;;;22.73;9.15;;;;;;;;;;5023903;28;20037;-77
2022/12/03 11:10:18;;;;;;;18.20;8.65;;;;;;;;;;5025777;28;20043;-77
2022/12/03 11:13:21;;;;;;;24.95;9.15;;;;;;;;;;5024626;28;20030;-76
2022/12/03 11:15:47;;;;;;;25.85;9.75;;;;;;;;;;5016377;28;20076;-81
2022/12/03 11:18:35;;;;;;;23.33;9.77;;;;;;;;;;5017950;28;20072;-80
2022/12/03 11:21:03;;;;;;;25.25;9.98;;;;;;;;;;5026050;28;20109;-80
2022/12/03 11:23:57;;;;;;;20.75;7.47;;;;;;;;;;5023923;28;20075;-80
2022/12/03 11:26:25;;;;;;;30.10;12.98;;;;;;;;;;5016267;28;20458;-80
2022/12/03 11:28:53;;;;;;;16.38;7.55;;;;;;;;;;5021946;28;20034;-80
2022/12/03 11:31:45;;;;;;;25.35;10.82;;;;;;;;;;5014889;28;20032;-80
2022/12/03 11:34:19;;;;;;;20.65;7.85;;;;;;;;;;5016513;28;20046;-79
2022/12/03 11:37:10;;;;;;;21.67;9.32;;;;;;;;;;5024709;28;20578;-80
2022/12/03 11:39:50;;;;;;;22.30;9.30;;;;;;;;;;5026390;28;20605;-80
2022/12/03 11:42:24;;;;;;;25.17;10.32;;;;;;;;;;5022433;28;20045;-80
2022/12/03 11:45:05;;;;;;;29.98;10.45;;;;;;;;;;5025625;28;20116;-80
2022/12/03 11:47:32;;;;;;;18.17;8.40;;;;;;;;;;5021469;28;20033;-79
2022/12/03 11:49:57;;;;;;;20.02;9.43;;;;;;;;;;5028464;28;20034;-79
2022/12/03 11:52:38;;;;;;;21.83;7.97;;;;;;;;;;5019354;28;20517;-80
2022/12/03 11:55:37;;;;;;;20.60;8.05;;;;;;;;;;5011893;28;20515;-81
2022/12/03 11:58:13;;;;;;;23.52;10.10;;;;;;;;;;5039992;28;20069;-83
2022/12/03 12:00:47;;;;;;;19.58;7.78;;;;;;;;;;4992761;28;20049;-81
2022/12/03 12:03:25;;;;;;;20.17;8.80;;;;;;;;;;5025472;28;20493;-82
2022/12/03 12:06:06;;;;;;;30.42;11.10;;;;;;;;;;5029608;28;20042;-81
2022/12/03 12:08:33;;;;;;;20.67;8.77;;;;;;;;;;5019971;28;20037;-81
2022/12/03 12:10:58;;;;;;;23.60;8.93;;;;;;;;;;5025131;28;20107;-79
2022/12/03 12:13:23;;;;;;;23.27;8.73;;;;;;;;;;5025842;28;20037;-82
2022/12/03 12:15:49;;;;;;;27.13;9.38;;;;;;;;;;5028880;28;20017;-82
2022/12/03 12:18:33;;;;;;;22.55;8.52;;;;;;;;;;5022282;28;20053;-82
2022/12/03 12:21:36;;;;;;;19.52;7.28;;;;;;;;;;5021970;28;20037;-82
2022/12/03 12:24:45;;;;;;;25.70;10.52;;;;;;;;;;5019785;28;20073;-82
2022/12/03 12:27:15;;;;;;;21.30;8.70;;;;;;;;;;5013509;28;20045;-81
2022/12/03 12:29:42;;;;;;;23.60;9.68;;;;;;;;;;5023088;28;20045;-82
2022/12/03 12:32:07;;;;;;;21.20;9.63;;;;;;;;;;5026941;28;20034;-82
2022/12/03 12:34:35;;;;;;;21.83;8.73;;;;;;;;;;5021526;28;20055;-82
2022/12/03 12:37:01;;;;;;;28.02;10.32;;;;;;;;;;5037313;28;20021;-82
2022/12/03 12:39:26;;;;;;;26.00;10.80;;;;;;;;;;5022459;28;20073;-82
2022/12/03 12:41:53;;;;;;;26.88;9.60;;;;;;;;;;5027250;28;20056;-82
2022/12/03 12:44:22;;;;;;;32.20;10.32;;;;;;;;;;5027523;28;20510;-82
2022/12/03 12:46:53;;;;;;;20.00;8.32;;;;;;;;;;5012524;28;20045;-82
2022/12/03 12:49:23;;;;;;;20.38;7.65;;;;;;;;;;5029691;28;20099;-82
2022/12/03 12:51:49;;;;;;;22.73;9.50;;;;;;;;;;5026917;28;20033;-82
2022/12/03 12:54:17;;;;;;;19.35;6.93;;;;;;;;;;5026594;28;20030;-81
2022/12/03 12:56:44;;;;;;;14.02;5.55;;;;;;;;;;5024968;28;20039;-81
2022/12/03 12:59:19;;;;;;;17.98;6.50;;;;;;;;;;5018037;28;20041;-82
2022/12/03 13:01:47;;;;;;;15.38;6.15;;;;;;;;;;5025177;28;20560;-82
2022/12/03 13:04:18;;;;;;;15.02;6.80;;;;;;;;;;5019444;28;20082;-81
2022/12/03 13:06:46;;;;;;;19.45;8.45;;;;;;;;;;5034773;28;20095;-82
2022/12/03 13:09:17;;;;;;;19.63;7.82;;;;;;;;;;5026055;28;20052;-80
2022/12/03 13:11:45;;;;;;;10.35;4.90;;;;;;;;;;5015001;28;20097;-82
2022/12/03 13:14:18;;;;;;;17.80;7.97;;;;;;;;;;5012488;28;20040;-80
2022/12/03 13:16:45;;;;;;;14.25;6.18;;;;;;;;;;5012653;28;20932;-80
2022/12/03 13:19:19;;;;;;;17.20;8.13;;;;;;;;;;5005001;28;20053;-81
2022/12/03 13:21:45;;;;;;;20.48;7.28;;;;;;;;;;5012505;28;20025;-81
2022/12/03 13:24:28;;;;;;;9.50;4.15;;;;;;;;;;5018725;28;20040;-82
2022/12/03 13:26:54;;;;;;;20.65;8.07;;;;;;;;;;5025718;28;20518;-81
2022/12/03 13:29:23;;;;;;;17.13;7.63;;;;;;;;;;5026351;28;20030;-82
2022/12/03 13:31:52;;;;;;;17.38;6.25;;;;;;;;;;5023539;28;20088;-82
2022/12/03 13:34:32;;;;;;;20.00;8.80;;;;;;;;;;5022786;28;20021;-82
2022/12/03 13:36:59;;;;;;;20.35;8.43;;;;;;;;;;5034261;28;20092;-82
2022/12/03 13:39:37;;;;;;;18.30;7.30;;;;;;;;;;5024517;28;20074;-81
2022/12/03 13:44:56;;;;;;;24.67;9.48;;;;;;;;;;5021119;28;20107;-82
2022/12/03 13:47:22;;;;;;;13.30;5.72;;;;;;;;;;5023771;28;20037;-82
2022/12/03 13:49:52;;;;;;;16.70;7.80;;;;;;;;;;5023645;28;20049;-79
2022/12/03 13:52:21;;;;;;;7.88;4.20;;;;;;;;;;5025916;28;20037;-79
2022/12/03 13:54:52;;;;;;;14.35;7.30;;;;;;;;;;5025118;28;20128;-79
2022/12/03 13:57:17;;;;;;;23.88;9.88;;;;;;;;;;5018235;28;20043;-78
2022/12/03 13:59:42;;;;;;;20.98;8.98;;;;;;;;;;5021723;28;20060;-79
2022/12/03 14:02:08;;;;;;;17.42;9.07;;;;;;;;;;5024535;28;20041;-79
2022/12/03 14:04:34;;;;;;;20.27;9.25;;;;;;;;;;5022995;28;20060;-79
2022/12/03 14:06:59;;;;;;;20.30;8.15;;;;;;;;;;5023402;28;20545;-82
2022/12/03 14:09:25;;;;;;;17.17;7.88;;;;;;;;;;5016151;28;20065;-82
2022/12/03 14:14:34;;;;;;;18.38;7.30;;;;;;;;;;5023844;28;20091;-82
2022/12/03 14:16:59;;;;;;;23.17;8.68;;;;;;;;;;5023726;28;20033;-82
2022/12/03 14:19:24;;;;;;;22.17;9.15;;;;;;;;;;5023447;28;20033;-82
2022/12/03 14:21:50;;;;;;;20.50;7.97;;;;;;;;;;5026363;28;20047;-83
2022/12/03 14:24:15;;;;;;;23.73;9.70;;;;;;;;;;5025152;28;20425;-83
2022/12/03 14:26:40;;;;;;;18.27;7.45;;;;;;;;;;5025943;28;20276;-83
2022/12/03 14:29:06;;;;;;;21.58;9.23;;;;;;;;;;5024007;28;20033;-83
2022/12/03 14:31:31;;;;;;;19.27;8.82;;;;;;;;;;5023924;28;20505;-82
2022/12/03 14:33:56;;;;;;;21.33;9.10;;;;;;;;;;5036724;28;20022;-83
2022/12/03 14:36:21;;;;;;;20.80;8.18;;;;;;;;;;5023965;28;20033;-83
2022/12/03 14:38:47;;;;;;;26.05;10.10;;;;;;;;;;5019766;28;20551;-82
2022/12/03 14:43:56;;;;;;;25.83;9.20;;;;;;;;;;5014485;28;20049;-82
2022/12/03 14:46:21;;;;;;;19.02;7.85;;;;;;;;;;5020665;28;20022;-83
2022/12/03 14:48:49;;;;;;;19.55;6.63;;;;;;;;;;5019585;28;20076;-80
2022/12/03 14:51:15;;;;;;;14.00;6.22;;;;;;;;;;5022629;28;20042;-82
2022/12/03 14:53:40;;;;;;;17.75;7.70;;;;;;;;;;5023427;28;20048;-82
2022/12/03 14:56:05;;;;;;;19.13;7.32;;;;;;;;;;5021444;28;20039;-83
2022/12/03 14:58:32;;;;;;;20.92;8.18;;;;;;;;;;5023000;28;20040;-83